Terminal Aerodrome Forecast
Issued by NWS Bismarck, ND

Home | Current Version | Previous Version | Text Only | Print | Product List | Glossary On
Versions: 1 2 3 4 5 6 7 8 9 10 11 12 13 14 15 16
000
FTUS43 KBIS 262300
TAFISN
TAF
KISN 262339Z 2700/2724 31019G28KT P6SM VCSH SCT070
     FM270200 32013KT P6SM SCT060
     FM270500 34008KT P6SM BKN050
     FM270900 34004KT P6SM BKN035
     FM271700 35009KT P6SM SCT250=

USA.gov is the U.S. government's official web portal to all federal, state and local government web resources and services.